Flight Information

DEPARTURE
SAN FRANCISCO, CA
Elevation:
13
Runways:
1R/19L - 8650x200 - ASPH-G
1L/19R - 7650x200 - ASPH-G
10L/28R - 11870x200 - ASPH-G
10R/28L - 11381x200 - ASPH-G
ATIS:
118.85 650-877-3585
Clearance Delivery:
118.2
Ground:
121.8
Tower:
120.5
DESTINATION
,
Elevation:
TPA:
1000 (est.)


6905.5 NM69° True-15° Var53° HDG

Flight Plan:
(click to file on line)

1. Type
2. Aircraft Identification
3. Aircraft Type / Special Equipment
4. True Airspeed
kts
5. Departure Airport
(ICAO code)
6. Arriving Airport
(ICAO code)
7. Cruising Altitude
ft
8. Alternate Airport
(ICAO code)
9. Route of Flight
10. Remarks


00:00:00 Departure ATIS: Destination ATIS:

Clearance Limit:
Route:
Altitude: Expect in minutes
Frequency:
Transponder: (7500 Hijack / 7600 Lost Comms / 7700 Emergency)


KSFO 010856Z 27016KT 10SM FEW008 12/04 A3004 RMK AO2 SLP173 T01220044 58007
Time: 2020-04-01T08:56:00Z
1585732818
Winds: 270 @ 16 kts
Visibility: 10.0 sm
Clouds (AGL): FEW 800
Temperature: 12.2 C
Dew Point: 4.4 C
Pressure: 30.041338 in Hgbr


Notes:

Data extracted from FAA Digital Chart Supplement. Effective: 0901Z Thursday, Mar 26, 2020 to 0901Z Thursday, May 21, 2020
Current ATIS data is provided courtisy of PilotEdge.